CPX246 Details

Departure: Benito Juárez International Airport (MMMX)
Arrival: Los Angeles International Airport (KLAX) at N/A
Route: PPE J93 ASUTA AMMOR OLAAA1
Notes:


Current Weather Information
MMMX 191544Z 04009KT 8SM SCT020 BKN090 BKN250 19/10 A3034 NOSIG RMK 8/838 HZY
KLAX 191553Z 13005KT 7SM OVC017 21/16 A2997 RMK AO2 SLP147 T02060156